createdAt,value
2022-08-02T00:00:55.655Z,99.99
2022-08-02T00:01:51.390Z,99.99
2022-08-02T00:02:51.427Z,99.99
2022-08-02T00:03:51.292Z,99.99
2022-08-02T00:04:51.418Z,99.99
2022-08-02T00:05:53.502Z,99.99
2022-08-02T00:06:51.506Z,99.99
2022-08-02T00:07:51.269Z,99.99
2022-08-02T00:08:51.418Z,99.99
2022-08-02T00:09:51.258Z,99.99
2022-08-02T00:10:51.166Z,99.99
2022-08-02T00:11:51.306Z,99.99
2022-08-02T00:12:51.234Z,99.99
2022-08-02T00:13:51.343Z,99.99
2022-08-02T00:14:51.427Z,99.99
2022-08-02T00:15:51.253Z,99.99
2022-08-02T00:16:51.087Z,99.99
2022-08-02T00:17:51.253Z,99.99
2022-08-02T00:18:51.081Z,99.99
2022-08-02T00:19:51.332Z,99.99
2022-08-02T00:20:51.105Z,99.99
2022-08-02T00:21:51.038Z,99.99
2022-08-02T00:22:51.097Z,99.99
2022-08-02T00:24:27.824Z,99.99
2022-08-02T00:24:51.094Z,99.99
2022-08-02T00:25:55.603Z,99.99
2022-08-02T00:26:51.096Z,99.99
2022-08-02T00:27:50.968Z,99.99
2022-08-02T00:28:51.108Z,99.99
2022-08-02T00:29:52.857Z,99.99
2022-08-02T00:30:51.086Z,99.99
2022-08-02T00:31:50.971Z,99.99
2022-08-02T00:32:51.111Z,99.99
2022-08-02T00:34:05.346Z,99.99
2022-08-02T00:34:51.102Z,99.99
2022-08-02T00:35:50.966Z,99.99
2022-08-02T00:36:50.841Z,99.99
2022-08-02T00:37:50.832Z,99.99
2022-08-02T00:38:50.814Z,99.99
2022-08-02T00:39:50.852Z,99.99
2022-08-02T00:40:53.350Z,99.99
2022-08-02T00:41:50.947Z,99.99
2022-08-02T00:42:50.766Z,99.99
2022-08-02T00:43:50.746Z,99.99
2022-08-02T00:44:50.787Z,99.99
2022-08-02T00:46:02.754Z,99.99
2022-08-02T00:46:50.869Z,99.99
2022-08-02T00:47:50.937Z,99.99
2022-08-02T00:48:50.841Z,99.99
2022-08-02T00:49:50.659Z,99.99
2022-08-02T00:50:50.653Z,99.99
2022-08-02T00:51:50.616Z,99.99
2022-08-02T00:52:50.842Z,99.99
2022-08-02T00:53:50.629Z,99.99
2022-08-02T00:54:50.602Z,99.99
2022-08-02T00:55:51.632Z,99.99
2022-08-02T00:56:51.192Z,99.99
2022-08-02T00:57:50.632Z,99.99
2022-08-02T00:58:50.872Z,99.99
2022-08-02T00:59:50.621Z,99.99
2022-08-02T01:00:50.774Z,99.99
2022-08-02T01:01:56.198Z,99.99
2022-08-02T01:02:50.802Z,99.99
2022-08-02T01:03:50.617Z,99.99
2022-08-02T01:04:50.556Z,99.99
2022-08-02T01:06:10.260Z,99.99
2022-08-02T01:06:50.468Z,99.99
2022-08-02T01:07:50.617Z,99.99
2022-08-02T01:08:50.456Z,99.99
2022-08-02T01:09:50.406Z,99.99
2022-08-02T01:10:50.526Z,99.99
2022-08-02T01:11:50.639Z,99.99
2022-08-02T01:12:50.481Z,99.99
2022-08-02T01:13:50.640Z,99.99
2022-08-02T01:14:50.485Z,99.99
2022-08-02T01:15:50.347Z,99.99
2022-08-02T01:16:50.564Z,99.99
2022-08-02T01:17:50.326Z,99.99
2022-08-02T01:18:50.451Z,99.99
2022-08-02T01:19:50.282Z,99.99
2022-08-02T01:20:50.485Z,99.99
2022-08-02T01:21:50.343Z,99.99
2022-08-02T01:23:05.810Z,99.99
2022-08-02T01:23:50.396Z,99.99
2022-08-02T01:24:50.467Z,99.99
2022-08-02T01:25:50.305Z,99.99
2022-08-02T01:26:50.166Z,99.99
2022-08-02T01:27:50.306Z,99.99
2022-08-02T01:28:50.158Z,99.99
2022-08-02T01:29:50.357Z,99.99
2022-08-02T01:30:50.116Z,99.99
2022-08-02T01:31:50.108Z,99.99
2022-08-02T01:32:50.114Z,99.99
2022-08-02T01:33:50.325Z,99.99
2022-08-02T01:34:50.071Z,99.99
2022-08-02T01:35:51.237Z,99.99
2022-08-02T01:36:50.051Z,99.99
2022-08-02T01:37:50.374Z,99.99
2022-08-02T01:38:50.130Z,99.99
2022-08-02T01:39:50.000Z,99.99
2022-08-02T01:40:50.025Z,99.99
2022-08-02T01:41:50.051Z,99.99
2022-08-02T01:42:50.211Z,99.99
2022-08-02T01:43:49.987Z,99.99
2022-08-02T01:44:50.142Z,99.99
2022-08-02T01:45:49.986Z,99.99
2022-08-02T01:46:49.916Z,99.99
2022-08-02T01:47:49.897Z,99.99
2022-08-02T01:48:49.996Z,99.99
2022-08-02T01:49:49.986Z,99.99
2022-08-02T01:50:49.847Z,99.99
2022-08-02T01:51:49.975Z,99.99
2022-08-02T01:52:53.649Z,99.99
2022-08-02T01:53:49.846Z,99.99
2022-08-02T01:54:49.901Z,99.95
2022-08-02T01:55:57.916Z,99.99
2022-08-02T01:56:49.845Z,99.95
2022-08-02T01:57:49.971Z,99.74
2022-08-02T01:58:49.764Z,99.65
2022-08-02T01:59:49.765Z,99.79
2022-08-02T02:00:49.969Z,99.65
2022-08-02T02:01:49.719Z,99.34
2022-08-02T02:02:49.811Z,99.24
2022-08-02T02:03:49.667Z,99.24
2022-08-02T02:04:49.846Z,99.14
2022-08-02T02:05:49.735Z,99.14
2022-08-02T02:06:49.827Z,99.14
2022-08-02T02:07:49.675Z,99.04
2022-08-02T02:08:49.825Z,99.44
2022-08-02T02:09:50.946Z,99.65
2022-08-02T02:10:49.823Z,99.54
2022-08-02T02:12:14.111Z,99.54
2022-08-02T02:12:49.605Z,99.65
2022-08-02T02:13:49.671Z,99.85
2022-08-02T02:14:51.562Z,99.95
2022-08-02T02:15:49.651Z,99.85
2022-08-02T02:16:49.513Z,99.95
2022-08-02T02:17:57.179Z,99.99
2022-08-02T02:18:49.500Z,99.99
2022-08-02T02:19:49.651Z,99.99
2022-08-02T02:20:49.533Z,99.99
2022-08-02T02:21:49.652Z,99.99
2022-08-02T02:22:49.853Z,99.99
2022-08-02T02:23:50.741Z,99.99
2022-08-02T02:24:49.506Z,99.99
2022-08-02T02:25:49.357Z,99.99
2022-08-02T02:26:52.355Z,99.99
2022-08-02T02:27:49.347Z,99.99
2022-08-02T02:28:49.507Z,99.99
2022-08-02T02:29:49.405Z,99.99
2022-08-02T02:30:49.495Z,99.99
2022-08-02T02:31:49.317Z,99.99
2022-08-02T02:32:49.256Z,99.99
2022-08-02T02:33:49.254Z,99.99
2022-08-02T02:34:49.263Z,99.99
2022-08-02T02:35:49.330Z,99.99
2022-08-02T02:36:49.211Z,99.99
2022-08-02T02:37:49.191Z,99.99
2022-08-02T02:38:49.191Z,99.99
2022-08-02T02:39:49.174Z,99.99
2022-08-02T02:40:49.152Z,99.99
2022-08-02T02:41:49.405Z,99.99
2022-08-02T02:42:49.581Z,99.99
2022-08-02T02:43:49.352Z,99.99
2022-08-02T02:44:49.106Z,99.99
2022-08-02T02:45:49.356Z,99.99
2022-08-02T02:46:49.196Z,99.99
2022-08-02T02:47:49.126Z,99.99
2022-08-02T02:48:49.214Z,99.99
2022-08-02T02:49:49.025Z,99.99
2022-08-02T02:50:49.016Z,99.99
2022-08-02T02:51:49.005Z,99.99
2022-08-02T02:52:48.976Z,99.99
2022-08-02T02:54:32.327Z,99.99
2022-08-02T02:54:49.051Z,99.99
2022-08-02T02:56:01.641Z,99.99
2022-08-02T02:56:48.942Z,99.99
2022-08-02T02:57:49.031Z,99.99
2022-08-02T02:58:48.914Z,99.99
2022-08-02T02:59:50.011Z,99.99
2022-08-02T03:00:49.040Z,99.99
2022-08-02T03:01:56.995Z,99.99
2022-08-02T03:02:48.857Z,99.99
2022-08-02T03:03:49.009Z,99.99
2022-08-02T03:04:56.844Z,99.99
2022-08-02T03:05:48.836Z,99.99
2022-08-02T03:06:48.925Z,99.99
2022-08-02T03:07:48.845Z,99.99
2022-08-02T03:08:48.875Z,99.99
2022-08-02T03:09:53.892Z,99.99
2022-08-02T03:10:48.746Z,99.99
2022-08-02T03:11:48.720Z,99.99
2022-08-02T03:12:48.706Z,99.99
2022-08-02T03:13:48.766Z,99.99
2022-08-02T03:14:49.217Z,99.74
2022-08-02T03:15:48.806Z,99.95
2022-08-02T03:16:48.882Z,99.99
2022-08-02T03:17:48.702Z,99.99
2022-08-02T03:18:48.652Z,99.90
2022-08-02T03:19:48.711Z,99.90
2022-08-02T03:20:48.590Z,99.70
2022-08-02T03:21:48.790Z,99.60
2022-08-02T03:22:48.591Z,99.80
2022-08-02T03:23:48.690Z,99.80
2022-08-02T03:24:48.536Z,99.60
2022-08-02T03:25:48.706Z,99.50
2022-08-02T03:26:48.545Z,99.80
2022-08-02T03:27:48.775Z,99.80
2022-08-02T03:28:48.537Z,99.80
2022-08-02T03:29:48.504Z,99.70
2022-08-02T03:30:48.537Z,99.99
2022-08-02T03:31:48.437Z,99.99
2022-08-02T03:32:48.602Z,99.99
2022-08-02T03:33:48.393Z,99.99
2022-08-02T03:34:48.531Z,99.99
2022-08-02T03:35:48.380Z,99.99
2022-08-02T03:36:48.396Z,99.99
2022-08-02T03:37:48.396Z,99.99
2022-08-02T03:38:48.410Z,99.99
2022-08-02T03:39:49.715Z,99.99
2022-08-02T03:40:48.551Z,99.99
2022-08-02T03:41:48.371Z,99.99
2022-08-02T03:42:48.305Z,99.99
2022-08-02T03:43:48.374Z,99.99
2022-08-02T03:44:48.311Z,99.99
2022-08-02T03:45:48.232Z,99.99
2022-08-02T03:46:48.255Z,99.99
2022-08-02T03:47:48.215Z,99.99
2022-08-02T03:48:48.226Z,99.99
2022-08-02T03:49:48.196Z,99.99
2022-08-02T03:50:48.317Z,99.99
2022-08-02T03:51:48.396Z,99.99
2022-08-02T03:52:48.237Z,99.99
2022-08-02T03:53:48.125Z,99.99
2022-08-02T03:54:48.228Z,99.99
2022-08-02T03:55:48.096Z,99.99
2022-08-02T03:56:48.331Z,99.99
2022-08-02T03:57:48.072Z,99.99
2022-08-02T03:58:49.409Z,99.99
2022-08-02T03:59:48.071Z,99.99
2022-08-02T04:00:48.183Z,99.99
2022-08-02T04:01:48.051Z,99.99
2022-08-02T04:02:48.311Z,99.99
2022-08-02T04:03:48.051Z,99.99
2022-08-02T04:04:48.309Z,99.99
2022-08-02T04:06:00.995Z,99.99
2022-08-02T04:06:47.975Z,99.99
2022-08-02T04:08:33.043Z,99.99
2022-08-02T04:08:47.939Z,99.99
2022-08-02T04:09:48.056Z,99.99
2022-08-02T04:10:47.896Z,99.99
2022-08-02T04:11:48.067Z,99.99
2022-08-02T04:12:47.896Z,99.99
2022-08-02T04:13:48.137Z,99.99
2022-08-02T04:14:47.976Z,99.99
2022-08-02T04:15:47.829Z,99.99
2022-08-02T04:16:47.921Z,99.99
2022-08-02T04:17:48.071Z,99.99
2022-08-02T04:18:47.909Z,99.99
2022-08-02T04:19:47.791Z,99.99
2022-08-02T04:20:47.971Z,99.99
2022-08-02T04:21:51.755Z,99.99
2022-08-02T04:22:47.893Z,99.99
2022-08-02T04:23:47.753Z,99.99
2022-08-02T04:24:49.835Z,99.99
2022-08-02T04:25:47.812Z,99.99
2022-08-02T04:26:48.938Z,99.99
2022-08-02T04:28:15.173Z,99.99
2022-08-02T04:28:47.907Z,99.99
2022-08-02T04:29:47.736Z,99.99
2022-08-02T04:30:47.659Z,99.99
2022-08-02T04:31:47.807Z,99.99
2022-08-02T04:32:47.576Z,99.99
2022-08-02T04:33:47.556Z,99.99
2022-08-02T04:35:17.792Z,99.99
2022-08-02T04:35:47.738Z,99.99
2022-08-02T04:36:47.515Z,99.99
2022-08-02T04:38:09.783Z,99.99
2022-08-02T04:38:47.532Z,99.99
2022-08-02T04:39:47.731Z,99.99
2022-08-02T04:40:47.582Z,99.99
2022-08-02T04:41:47.487Z,99.99
2022-08-02T04:42:47.535Z,99.99
2022-08-02T04:43:47.445Z,99.99
2022-08-02T04:44:47.402Z,99.99
2022-08-02T04:45:47.405Z,99.99
2022-08-02T04:46:47.406Z,99.99
2022-08-02T04:48:03.495Z,99.99
2022-08-02T04:48:47.437Z,99.99
2022-08-02T04:49:47.358Z,99.99
2022-08-02T04:50:47.337Z,99.99
2022-08-02T04:51:47.325Z,99.99
2022-08-02T04:52:47.307Z,99.99
2022-08-02T04:53:47.498Z,99.99
2022-08-02T04:54:47.266Z,99.99
2022-08-02T04:55:47.256Z,99.99
2022-08-02T04:56:47.257Z,99.99
2022-08-02T04:57:52.608Z,99.99
2022-08-02T04:58:47.365Z,99.99
2022-08-02T04:59:50.414Z,99.99
2022-08-02T05:00:47.362Z,99.99
2022-08-02T05:01:47.172Z,99.99
2022-08-02T05:02:47.286Z,99.99
2022-08-02T05:03:47.186Z,99.99
2022-08-02T05:04:47.333Z,99.99
2022-08-02T05:05:47.151Z,99.99
2022-08-02T05:06:47.125Z,99.99
2022-08-02T05:07:47.111Z,99.99
2022-08-02T05:08:47.277Z,99.99
2022-08-02T05:09:47.117Z,99.99
2022-08-02T05:10:47.336Z,99.99
2022-08-02T05:11:55.108Z,99.99
2022-08-02T05:12:47.266Z,99.99
2022-08-02T05:13:58.914Z,99.99
2022-08-02T05:14:47.277Z,99.99
2022-08-02T05:15:47.096Z,99.99
2022-08-02T05:16:47.026Z,99.99
2022-08-02T05:17:48.193Z,99.99
2022-08-02T05:18:46.962Z,99.99
2022-08-02T05:19:47.112Z,99.99
2022-08-02T05:20:46.941Z,99.99
2022-08-02T05:21:47.101Z,99.99
2022-08-02T05:22:47.032Z,99.99
2022-08-02T05:23:47.092Z,99.99
2022-08-02T05:24:46.985Z,99.99
2022-08-02T05:25:46.851Z,99.99
2022-08-02T05:26:46.931Z,99.99
2022-08-02T05:27:46.811Z,99.99
2022-08-02T05:28:47.007Z,99.99
2022-08-02T05:29:53.113Z,99.99
2022-08-02T05:30:46.788Z,99.99
2022-08-02T05:31:46.786Z,99.99
2022-08-02T05:32:46.757Z,99.99
2022-08-02T05:33:46.796Z,99.99
2022-08-02T05:34:47.006Z,99.99
2022-08-02T05:35:46.766Z,99.99
2022-08-02T05:36:46.698Z,99.99
2022-08-02T05:37:46.787Z,99.99
2022-08-02T05:38:49.840Z,99.99
2022-08-02T05:39:55.884Z,99.99
2022-08-02T05:40:54.572Z,99.99
2022-08-02T05:41:46.612Z,99.99
2022-08-02T05:42:46.613Z,99.99
2022-08-02T05:43:46.611Z,99.99
2022-08-02T05:44:46.613Z,99.99
2022-08-02T05:45:46.606Z,99.99
2022-08-02T05:46:46.694Z,99.99
2022-08-02T05:47:46.545Z,99.99
2022-08-02T05:48:46.536Z,99.99
2022-08-02T05:49:46.796Z,99.99
2022-08-02T05:50:46.626Z,99.99
2022-08-02T05:51:46.496Z,99.99
2022-08-02T05:52:46.755Z,99.99
2022-08-02T05:53:46.480Z,99.99
2022-08-02T05:54:46.457Z,99.99
2022-08-02T05:55:46.457Z,99.99
2022-08-02T05:56:46.444Z,99.99
2022-08-02T05:57:46.458Z,99.99
2022-08-02T05:58:46.427Z,99.99
2022-08-02T05:59:46.472Z,99.99
2022-08-02T06:00:46.432Z,99.99
2022-08-02T06:01:46.416Z,99.99
2022-08-02T06:02:46.331Z,99.99
2022-08-02T06:03:46.345Z,99.99
2022-08-02T06:04:46.304Z,99.99
2022-08-02T06:05:46.322Z,99.99
2022-08-02T06:06:46.408Z,99.99
2022-08-02T06:07:46.489Z,99.99
2022-08-02T06:08:47.993Z,99.99
2022-08-02T06:09:46.250Z,99.99
2022-08-02T06:10:46.317Z,99.99
2022-08-02T06:12:02.502Z,99.99
2022-08-02T06:12:46.379Z,99.99
2022-08-02T06:13:46.176Z,99.99
2022-08-02T06:14:47.136Z,99.99
2022-08-02T06:15:53.394Z,99.99
2022-08-02T06:16:46.317Z,99.99
2022-08-02T06:17:46.159Z,99.99
2022-08-02T06:18:46.377Z,99.99
2022-08-02T06:19:51.792Z,99.99
2022-08-02T06:20:46.176Z,99.99
2022-08-02T06:22:36.086Z,99.99
2022-08-02T06:22:46.617Z,99.99
2022-08-02T06:23:58.782Z,99.99
2022-08-02T06:24:46.303Z,99.99
2022-08-02T06:25:47.985Z,99.99
2022-08-02T06:26:46.127Z,99.99
2022-08-02T06:27:46.152Z,99.99
2022-08-02T06:28:45.972Z,99.99
2022-08-02T06:29:46.165Z,99.99
2022-08-02T06:30:45.986Z,99.99
2022-08-02T06:31:46.146Z,99.99
2022-08-02T06:32:46.056Z,99.99
2022-08-02T06:33:45.898Z,99.99
2022-08-02T06:34:45.980Z,99.99
2022-08-02T06:35:45.847Z,99.99
2022-08-02T06:36:45.977Z,99.99
2022-08-02T06:37:45.848Z,99.99
2022-08-02T06:38:51.166Z,99.99
2022-08-02T06:39:45.816Z,99.99
2022-08-02T06:40:46.053Z,99.99
2022-08-02T06:41:45.792Z,99.99
2022-08-02T06:42:45.972Z,99.99
2022-08-02T06:43:45.762Z,99.99
2022-08-02T06:44:47.862Z,99.99
2022-08-02T06:45:45.911Z,99.99
2022-08-02T06:47:11.867Z,99.99
2022-08-02T06:47:45.725Z,99.99
2022-08-02T06:48:45.706Z,99.99
2022-08-02T06:49:52.108Z,99.99
2022-08-02T06:50:45.747Z,99.99
2022-08-02T06:51:45.647Z,99.99
2022-08-02T06:52:45.626Z,99.99
2022-08-02T06:53:45.606Z,99.99
2022-08-02T06:54:45.657Z,99.99
2022-08-02T06:55:45.817Z,99.99
2022-08-02T06:56:45.726Z,99.99
2022-08-02T06:57:45.816Z,99.99
2022-08-02T06:58:45.596Z,99.99
2022-08-02T06:59:45.527Z,99.99
2022-08-02T07:00:45.520Z,99.99
2022-08-02T07:01:45.533Z,99.99
2022-08-02T07:02:45.671Z,99.99
2022-08-02T07:03:45.526Z,99.99
2022-08-02T07:04:45.521Z,99.99
2022-08-02T07:05:45.574Z,99.99
2022-08-02T07:06:45.432Z,99.99
2022-08-02T07:07:45.493Z,99.99
2022-08-02T07:08:59.496Z,99.99
2022-08-02T07:09:56.764Z,99.99
2022-08-02T07:10:45.429Z,99.99
2022-08-02T07:11:45.576Z,99.99
2022-08-02T07:12:45.347Z,99.99
2022-08-02T07:13:45.506Z,99.99
2022-08-02T07:14:45.339Z,99.99
2022-08-02T07:15:49.051Z,99.99
2022-08-02T07:16:45.344Z,99.99
2022-08-02T07:17:45.337Z,99.99
2022-08-02T07:18:45.347Z,99.99
2022-08-02T07:19:45.246Z,99.99
2022-08-02T07:20:45.345Z,99.99
2022-08-02T07:21:57.227Z,99.99
2022-08-02T07:22:45.336Z,99.99
2022-08-02T07:23:45.343Z,99.99
2022-08-02T07:24:45.352Z,99.99
2022-08-02T07:26:02.445Z,99.99
2022-08-02T07:27:10.055Z,99.99
2022-08-02T07:27:45.172Z,99.99
2022-08-02T07:28:45.153Z,99.52
2022-08-02T07:29:47.077Z,99.72
2022-08-02T07:30:45.122Z,99.87
2022-08-02T07:31:45.246Z,99.27
2022-08-02T07:32:45.147Z,99.27
2022-08-02T07:33:47.092Z,98.77
2022-08-02T07:34:51.415Z,98.37
2022-08-02T07:35:45.177Z,98.27
2022-08-02T07:36:45.023Z,98.02
2022-08-02T07:37:55.307Z,98.52
2022-08-02T07:38:45.583Z,97.52
2022-08-02T07:39:45.189Z,96.52
2022-08-02T07:40:44.963Z,96.82
2022-08-02T07:41:44.973Z,96.67
2022-08-02T07:42:45.033Z,97.17
2022-08-02T07:43:44.936Z,97.43
2022-08-02T07:44:48.488Z,97.93
2022-08-02T07:45:55.973Z,98.33
2022-08-02T07:46:45.029Z,97.78
2022-08-02T07:47:44.912Z,96.88
2022-08-02T07:48:44.885Z,97.49
2022-08-02T07:49:44.852Z,95.43
2022-08-02T07:50:44.846Z,95.64
2022-08-02T07:51:44.907Z,96.34
2022-08-02T07:52:44.807Z,90.63
2022-08-02T07:53:51.105Z,92.28
2022-08-02T07:54:45.026Z,93.54
2022-08-02T07:55:44.766Z,92.43
2022-08-02T07:56:44.747Z,92.54
2022-08-02T07:57:46.730Z,92.13
2022-08-02T07:58:45.025Z,92.43
2022-08-02T07:59:44.706Z,92.83
2022-08-02T08:00:44.735Z,91.33
2022-08-02T08:01:45.966Z,92.59
2022-08-02T08:02:44.706Z,92.39
2022-08-02T08:03:44.743Z,92.14
2022-08-02T08:04:44.712Z,90.45
2022-08-02T08:05:44.753Z,90.75
2022-08-02T08:06:44.728Z,91.75
2022-08-02T08:07:44.594Z,89.95
2022-08-02T08:08:44.724Z,89.40
2022-08-02T08:09:44.851Z,88.65
2022-08-02T08:10:44.717Z,88.55
2022-08-02T08:11:44.615Z,89.65
2022-08-02T08:12:44.627Z,90.20
2022-08-02T08:13:44.545Z,91.16
2022-08-02T08:14:44.601Z,87.76
2022-08-02T08:15:51.704Z,87.66
2022-08-02T08:16:44.495Z,88.82
2022-08-02T08:17:44.546Z,87.62
2022-08-02T08:18:44.775Z,86.19
2022-08-02T08:19:50.807Z,86.04
2022-08-02T08:20:44.711Z,83.41
2022-08-02T08:21:44.551Z,82.18
2022-08-02T08:22:44.411Z,81.98
2022-08-02T08:23:44.412Z,85.50
2022-08-02T08:24:44.462Z,82.21
2022-08-02T08:25:44.531Z,78.43
2022-08-02T08:26:44.371Z,81.82
2022-08-02T08:27:44.540Z,81.02
2022-08-02T08:28:44.381Z,78.47
2022-08-02T08:29:44.541Z,80.22
2022-08-02T08:30:44.468Z,79.69
2022-08-02T08:31:44.287Z,80.98
2022-08-02T08:32:44.396Z,80.24
2022-08-02T08:33:44.256Z,77.62
2022-08-02T08:34:44.406Z,77.84
2022-08-02T08:35:44.216Z,73.73
2022-08-02T08:36:44.296Z,74.99
2022-08-02T08:37:44.227Z,78.17
2022-08-02T08:38:44.377Z,77.44
2022-08-02T08:39:57.997Z,76.34
2022-08-02T08:40:44.429Z,74.35
2022-08-02T08:41:44.232Z,75.91
2022-08-02T08:42:44.224Z,71.91
2022-08-02T08:43:44.211Z,75.24
2022-08-02T08:44:44.112Z,75.93
2022-08-02T08:45:44.212Z,72.73
2022-08-02T08:46:44.104Z,70.61
2022-08-02T08:47:44.063Z,71.37
2022-08-02T08:48:44.146Z,70.78
2022-08-02T08:49:52.757Z,71.50
2022-08-02T08:50:44.116Z,72.36
2022-08-02T08:51:44.217Z,67.51
2022-08-02T08:52:44.017Z,70.15
2022-08-02T08:53:44.225Z,68.86
2022-08-02T08:54:44.056Z,71.23
2022-08-02T08:55:43.957Z,65.43
2022-08-02T08:56:44.006Z,67.31
2022-08-02T08:57:43.926Z,67.91
2022-08-02T08:58:44.027Z,67.68
2022-08-02T08:59:43.922Z,70.05
2022-08-02T09:00:44.070Z,67.28
2022-08-02T09:01:50.532Z,67.18
2022-08-02T09:02:43.929Z,66.32
2022-08-02T09:03:43.885Z,66.82
2022-08-02T09:04:52.982Z,66.16
2022-08-02T09:05:43.901Z,65.53
2022-08-02T09:06:43.841Z,65.14
2022-08-02T09:07:43.896Z,64.16
2022-08-02T09:08:43.796Z,60.98
2022-08-02T09:09:43.907Z,59.02
2022-08-02T09:10:43.800Z,57.98
2022-08-02T09:11:43.996Z,55.37
2022-08-02T09:12:43.824Z,59.10
2022-08-02T09:13:45.453Z,57.22
2022-08-02T09:14:43.737Z,58.72
2022-08-02T09:15:43.907Z,58.72
2022-08-02T09:16:43.752Z,60.02
2022-08-02T09:17:43.661Z,56.47
2022-08-02T09:18:44.028Z,55.26
2022-08-02T09:19:45.635Z,55.47
2022-08-02T09:20:43.766Z,58.56
2022-08-02T09:21:43.644Z,60.06
2022-08-02T09:22:43.731Z,59.60
2022-08-02T09:23:43.592Z,59.75
2022-08-02T09:24:43.631Z,61.21
2022-08-02T09:25:43.597Z,60.22
2022-08-02T09:26:43.587Z,58.51
2022-08-02T09:27:43.596Z,58.61
2022-08-02T09:28:43.747Z,59.48
2022-08-02T09:30:06.009Z,60.28
2022-08-02T09:30:43.826Z,61.56
2022-08-02T09:31:49.711Z,61.90
2022-08-02T09:32:43.748Z,60.16
2022-08-02T09:33:43.576Z,59.48
2022-08-02T09:34:43.487Z,58.50
2022-08-02T09:36:06.202Z,59.61
2022-08-02T09:36:43.511Z,59.78
2022-08-02T09:37:47.013Z,58.53
2022-08-02T09:38:43.431Z,57.84
2022-08-02T09:39:46.635Z,58.11
2022-08-02T09:40:43.396Z,57.49
2022-08-02T09:41:43.686Z,57.15
2022-08-02T09:42:43.431Z,58.83
2022-08-02T09:44:03.729Z,59.48
2022-08-02T09:44:43.426Z,55.52
2022-08-02T09:45:43.315Z,55.66
2022-08-02T09:46:43.426Z,56.88
2022-08-02T09:47:43.347Z,55.81
2022-08-02T09:48:43.436Z,53.47
2022-08-02T09:49:43.388Z,51.22
2022-08-02T09:50:43.418Z,51.76
2022-08-02T09:51:43.272Z,53.36
2022-08-02T09:52:44.147Z,54.27
2022-08-02T09:53:43.272Z,53.80
2022-08-02T09:54:43.190Z,52.72
2022-08-02T09:55:43.332Z,57.04
2022-08-02T09:56:43.428Z,54.98
2022-08-02T09:57:43.141Z,55.76
2022-08-02T09:58:43.152Z,54.32
2022-08-02T09:59:43.286Z,55.18
2022-08-02T10:00:52.579Z,57.35
2022-08-02T10:01:50.726Z,56.71
2022-08-02T10:02:43.177Z,57.70
2022-08-02T10:03:43.077Z,56.49
2022-08-02T10:04:53.342Z,57.70
2022-08-02T10:05:55.604Z,57.32
2022-08-02T10:06:43.107Z,56.38
2022-08-02T10:07:42.997Z,54.98
2022-08-02T10:08:43.172Z,53.87
2022-08-02T10:09:46.466Z,55.41
2022-08-02T10:10:43.102Z,52.15
2022-08-02T10:11:43.252Z,53.94
2022-08-02T10:12:42.951Z,54.17
2022-08-02T10:13:42.962Z,56.38
2022-08-02T10:14:43.194Z,56.87
2022-08-02T10:15:50.420Z,56.68
2022-08-02T10:16:42.921Z,56.31
2022-08-02T10:17:42.947Z,55.33
2022-08-02T10:18:42.887Z,53.66
2022-08-02T10:20:02.911Z,56.01
2022-08-02T10:20:43.177Z,59.55
2022-08-02T10:21:46.628Z,60.31
2022-08-02T10:22:42.897Z,55.15
2022-08-02T10:23:42.936Z,53.97
2022-08-02T10:24:47.618Z,53.97
2022-08-02T10:25:42.801Z,53.38
2022-08-02T10:26:42.792Z,54.31
2022-08-02T10:28:04.200Z,51.15
2022-08-02T10:28:42.872Z,51.12
2022-08-02T10:29:53.461Z,51.56
2022-08-02T10:30:42.806Z,55.41
2022-08-02T10:31:42.935Z,53.72
2022-08-02T10:32:42.783Z,51.84
2022-08-02T10:33:44.684Z,52.80
2022-08-02T10:34:42.877Z,53.92
2022-08-02T10:35:42.676Z,55.23
2022-08-02T10:36:42.777Z,55.05
2022-08-02T10:37:42.638Z,55.83
2022-08-02T10:38:42.786Z,55.46
2022-08-02T10:39:42.615Z,54.36
2022-08-02T10:40:42.875Z,53.81
2022-08-02T10:41:42.631Z,49.90
2022-08-02T10:42:42.791Z,51.42
2022-08-02T10:43:42.612Z,54.54
2022-08-02T10:44:42.541Z,51.42
2022-08-02T10:45:42.610Z,50.10
2022-08-02T10:46:42.591Z,51.46
2022-08-02T10:47:42.703Z,53.16
2022-08-02T10:48:42.485Z,54.48
2022-08-02T10:49:42.703Z,55.51
2022-08-02T10:50:42.495Z,52.37
2022-08-02T10:51:42.625Z,52.50
2022-08-02T10:52:42.466Z,50.81
2022-08-02T10:53:42.677Z,54.99
2022-08-02T10:54:42.465Z,51.07
2022-08-02T10:55:42.616Z,50.73
2022-08-02T10:56:42.457Z,52.03
2022-08-02T10:57:42.635Z,50.39
2022-08-02T10:58:42.368Z,52.17
2022-08-02T10:59:42.700Z,52.44
2022-08-02T11:00:42.576Z,53.91
2022-08-02T11:01:42.414Z,54.23
2022-08-02T11:02:42.368Z,54.61
2022-08-02T11:03:42.327Z,58.75
2022-08-02T11:04:42.326Z,59.61
2022-08-02T11:05:43.849Z,58.12
2022-08-02T11:06:42.324Z,58.72
2022-08-02T11:07:42.327Z,53.77
2022-08-02T11:08:42.276Z,51.88
2022-08-02T11:09:42.255Z,52.86
2022-08-02T11:10:42.217Z,55.11
2022-08-02T11:11:53.439Z,56.09
2022-08-02T11:12:42.275Z,56.24
2022-08-02T11:13:42.246Z,56.88
2022-08-02T11:14:42.465Z,57.14
2022-08-02T11:15:42.168Z,56.63
2022-08-02T11:16:42.137Z,58.04
2022-08-02T11:17:42.132Z,61.02
2022-08-02T11:18:42.151Z,61.05
2022-08-02T11:19:42.169Z,60.78
2022-08-02T11:20:42.121Z,58.45
2022-08-02T11:21:45.326Z,61.72
2022-08-02T11:22:42.140Z,59.75
2022-08-02T11:23:45.191Z,61.76
2022-08-02T11:24:42.150Z,63.63
2022-08-02T11:26:03.185Z,61.46
2022-08-02T11:26:42.146Z,59.00
2022-08-02T11:27:42.075Z,60.38
2022-08-02T11:28:42.056Z,60.90
2022-08-02T11:29:41.985Z,61.32
2022-08-02T11:30:41.975Z,61.03
2022-08-02T11:31:41.978Z,60.93
2022-08-02T11:32:42.145Z,61.16
2022-08-02T11:33:41.966Z,62.96
2022-08-02T11:34:42.196Z,63.75
2022-08-02T11:35:41.990Z,61.48
2022-08-02T11:36:42.151Z,61.75
2022-08-02T11:37:41.903Z,61.55
2022-08-02T11:38:41.870Z,61.58
2022-08-02T11:39:41.961Z,62.90
2022-08-02T11:40:41.923Z,62.50
2022-08-02T11:41:47.475Z,62.50
2022-08-02T11:42:41.840Z,63.65
2022-08-02T11:43:41.791Z,64.74
2022-08-02T11:44:41.825Z,61.58
2022-08-02T11:45:41.975Z,63.09
2022-08-02T11:46:41.825Z,63.56
2022-08-02T11:47:41.844Z,62.90
2022-08-02T11:48:41.716Z,62.93
2022-08-02T11:49:42.047Z,64.54
2022-08-02T11:50:41.695Z,62.46
2022-08-02T11:51:42.506Z,63.15
2022-08-02T11:52:41.676Z,64.14
2022-08-02T11:53:41.742Z,64.24
2022-08-02T11:54:41.901Z,64.11
2022-08-02T11:55:41.650Z,63.92
2022-08-02T11:56:41.631Z,64.18
2022-08-02T11:58:03.593Z,65.47
2022-08-02T11:58:41.899Z,62.07
2022-08-02T11:59:41.655Z,62.37
2022-08-02T12:00:41.620Z,62.34
2022-08-02T12:01:46.305Z,61.25
2022-08-02T12:02:41.825Z,62.24
2022-08-02T12:03:41.732Z,64.12
2022-08-02T12:04:41.517Z,63.59
2022-08-02T12:06:06.172Z,62.38
2022-08-02T12:06:41.577Z,62.77
2022-08-02T12:07:45.976Z,62.25
2022-08-02T12:08:41.495Z,64.12
2022-08-02T12:09:41.679Z,60.41
2022-08-02T12:10:41.436Z,59.71
2022-08-02T12:11:41.685Z,61.69
2022-08-02T12:12:41.411Z,62.08
2022-08-02T12:13:41.745Z,63.34
2022-08-02T12:14:41.501Z,64.12
2022-08-02T12:15:41.374Z,60.57
2022-08-02T12:16:41.510Z,60.77
2022-08-02T12:17:41.340Z,61.46
2022-08-02T12:18:41.341Z,60.87
2022-08-02T12:19:41.405Z,61.19
2022-08-02T12:20:41.325Z,60.01
2022-08-02T12:21:41.356Z,60.21
2022-08-02T12:22:42.027Z,59.02
2022-08-02T12:24:00.509Z,60.41
2022-08-02T12:24:41.565Z,61.49
2022-08-02T12:25:41.338Z,60.47
2022-08-02T12:26:41.215Z,61.36
2022-08-02T12:27:41.358Z,61.53
2022-08-02T12:28:41.177Z,61.63
2022-08-02T12:29:58.659Z,58.08
2022-08-02T12:30:41.261Z,61.04
2022-08-02T12:31:55.999Z,59.48
2022-08-02T12:32:41.150Z,59.59
2022-08-02T12:33:41.151Z,61.63
2022-08-02T12:34:41.192Z,58.33
2022-08-02T12:35:41.090Z,61.39
2022-08-02T12:36:41.241Z,63.34
2022-08-02T12:37:41.061Z,60.64
2022-08-02T12:38:41.197Z,62.41
2022-08-02T12:39:41.345Z,60.15
2022-08-02T12:40:41.175Z,58.77
2022-08-02T12:41:54.871Z,59.06
2022-08-02T12:42:41.257Z,59.06
2022-08-02T12:43:41.017Z,59.75
2022-08-02T12:44:41.176Z,58.89
2022-08-02T12:45:43.267Z,57.81
2022-08-02T12:46:42.150Z,59.19
2022-08-02T12:47:41.031Z,59.09
2022-08-02T12:48:56.472Z,60.87
2022-08-02T12:49:41.035Z,59.29
2022-08-02T12:50:41.190Z,58.60
2022-08-02T12:51:50.886Z,58.37
2022-08-02T12:52:40.886Z,57.68